sensor_id;sensor_type;location;lat;lon;timestamp;P1;P2;P0
20157;PMS5003;10239;56.820;24.416;2023-05-07T00:01:04;2.00;2.00;1.00
20157;PMS5003;10239;56.820;24.416;2023-05-07T00:03:33;0.00;0.00;0.00
20157;PMS5003;10239;56.820;24.416;2023-05-07T00:06:01;0.50;0.50;0.00
20157;PMS5003;10239;56.820;24.416;2023-05-07T00:08:28;3.00;3.00;1.00
20157;PMS5003;10239;56.820;24.416;2023-05-07T00:10:56;1.00;1.00;1.00
20157;PMS5003;10239;56.820;24.416;2023-05-07T00:13:23;1.00;1.00;1.00
20157;PMS5003;10239;56.820;24.416;2023-05-07T00:15:51;1.00;1.00;1.00
20157;PMS5003;10239;56.820;24.416;2023-05-07T00:18:19;0.50;0.50;0.00
20157;PMS5003;10239;56.820;24.416;2023-05-07T00:20:49;1.00;1.00;0.75
20157;PMS5003;10239;56.820;24.416;2023-05-07T00:23:17;1.50;1.50;1.00
20157;PMS5003;10239;56.820;24.416;2023-05-07T00:25:44;1.00;1.00;1.00
20157;PMS5003;10239;56.820;24.416;2023-05-07T00:28:12;1.50;1.50;1.00
20157;PMS5003;10239;56.820;24.416;2023-05-07T00:30:40;1.00;1.00;1.00
20157;PMS5003;10239;56.820;24.416;2023-05-07T00:33:07;0.00;0.00;0.00
20157;PMS5003;10239;56.820;24.416;2023-05-07T00:35:35;1.50;1.50;0.50
20157;PMS5003;10239;56.820;24.416;2023-05-07T00:38:02;2.50;2.50;2.00
20157;PMS5003;10239;56.820;24.416;2023-05-07T00:40:30;1.00;1.00;1.00
20157;PMS5003;10239;56.820;24.416;2023-05-07T00:42:57;3.00;3.00;1.00
20157;PMS5003;10239;56.820;24.416;2023-05-07T00:45:27;1.00;1.00;1.00
20157;PMS5003;10239;56.820;24.416;2023-05-07T00:47:55;3.00;3.00;1.00
20157;PMS5003;10239;56.820;24.416;2023-05-07T00:50:26;1.00;1.00;0.50
20157;PMS5003;10239;56.820;24.416;2023-05-07T00:52:54;3.50;3.50;2.00
20157;PMS5003;10239;56.820;24.416;2023-05-07T00:55:22;1.00;1.00;0.00
20157;PMS5003;10239;56.820;24.416;2023-05-07T00:57:50;0.00;0.00;0.00
20157;PMS5003;10239;56.820;24.416;2023-05-07T01:00:18;0.00;0.00;0.00
20157;PMS5003;10239;56.820;24.416;2023-05-07T01:02:46;2.00;2.00;2.00
20157;PMS5003;10239;56.820;24.416;2023-05-07T01:05:15;0.25;0.25;0.25
20157;PMS5003;10239;56.820;24.416;2023-05-07T01:07:45;1.00;1.00;1.00
20157;PMS5003;10239;56.820;24.416;2023-05-07T01:10:14;1.50;1.50;1.00
20157;PMS5003;10239;56.820;24.416;2023-05-07T01:12:42;0.75;0.75;0.25
20157;PMS5003;10239;56.820;24.416;2023-05-07T01:15:12;0.00;0.00;0.00
20157;PMS5003;10239;56.820;24.416;2023-05-07T01:17:40;0.50;0.50;0.25
20157;PMS5003;10239;56.820;24.416;2023-05-07T01:20:22;0.00;0.00;0.00
20157;PMS5003;10239;56.820;24.416;2023-05-07T01:22:52;4.00;4.00;1.50
20157;PMS5003;10239;56.820;24.416;2023-05-07T01:25:21;3.00;3.00;2.00
20157;PMS5003;10239;56.820;24.416;2023-05-07T01:27:51;2.00;2.00;1.00
20157;PMS5003;10239;56.820;24.416;2023-05-07T01:30:23;3.00;3.00;1.00
20157;PMS5003;10239;56.820;24.416;2023-05-07T01:32:53;2.25;2.25;1.50
20157;PMS5003;10239;56.820;24.416;2023-05-07T01:35:30;3.00;3.00;1.00
20157;PMS5003;10239;56.820;24.416;2023-05-07T01:38:01;1.50;1.50;0.75
20157;PMS5003;10239;56.820;24.416;2023-05-07T01:40:31;1.00;1.00;1.00
20157;PMS5003;10239;56.820;24.416;2023-05-07T01:42:59;2.50;2.50;2.00
20157;PMS5003;10239;56.820;24.416;2023-05-07T01:45:28;0.00;0.00;0.00
20157;PMS5003;10239;56.820;24.416;2023-05-07T01:47:57;3.00;0.25;0.00
20157;PMS5003;10239;56.820;24.416;2023-05-07T01:50:26;1.00;1.00;0.50
20157;PMS5003;10239;56.820;24.416;2023-05-07T01:52:55;1.50;1.50;0.75
20157;PMS5003;10239;56.820;24.416;2023-05-07T01:55:22;3.25;3.25;1.50
20157;PMS5003;10239;56.820;24.416;2023-05-07T01:57:50;3.00;3.00;1.00
20157;PMS5003;10239;56.820;24.416;2023-05-07T02:00:18;1.00;1.00;1.00
20157;PMS5003;10239;56.820;24.416;2023-05-07T02:02:46;3.00;3.00;2.50
20157;PMS5003;10239;56.820;24.416;2023-05-07T02:05:23;0.00;0.00;0.00
20157;PMS5003;10239;56.820;24.416;2023-05-07T02:07:58;0.00;0.00;0.00
20157;PMS5003;10239;56.820;24.416;2023-05-07T02:10:27;1.00;1.00;0.75
20157;PMS5003;10239;56.820;24.416;2023-05-07T02:12:54;1.00;1.00;0.00
20157;PMS5003;10239;56.820;24.416;2023-05-07T02:15:22;3.00;3.00;1.00
20157;PMS5003;10239;56.820;24.416;2023-05-07T02:18:03;3.00;3.00;1.00
20157;PMS5003;10239;56.820;24.416;2023-05-07T02:20:38;1.50;1.50;1.00
20157;PMS5003;10239;56.820;24.416;2023-05-07T02:23:06;0.00;0.00;0.00
20157;PMS5003;10239;56.820;24.416;2023-05-07T02:25:34;2.00;2.00;1.50
20157;PMS5003;10239;56.820;24.416;2023-05-07T02:28:01;5.50;5.50;4.00
20157;PMS5003;10239;56.820;24.416;2023-05-07T02:30:39;6.25;6.25;4.00
20157;PMS5003;10239;56.820;24.416;2023-05-07T02:33:08;3.00;3.00;1.50
20157;PMS5003;10239;56.820;24.416;2023-05-07T02:35:35;3.25;3.25;3.00
20157;PMS5003;10239;56.820;24.416;2023-05-07T02:38:03;6.00;5.50;2.50
20157;PMS5003;10239;56.820;24.416;2023-05-07T02:40:32;2.75;2.75;1.50
20157;PMS5003;10239;56.820;24.416;2023-05-07T02:43:00;7.50;7.50;5.00
20157;PMS5003;10239;56.820;24.416;2023-05-07T02:45:28;8.00;8.00;4.00
20157;PMS5003;10239;56.820;24.416;2023-05-07T02:47:56;7.00;7.00;5.00
20157;PMS5003;10239;56.820;24.416;2023-05-07T02:50:24;1.50;1.50;1.00
20157;PMS5003;10239;56.820;24.416;2023-05-07T02:52:52;5.00;4.00;3.00
20157;PMS5003;10239;56.820;24.416;2023-05-07T02:55:20;1.50;1.50;1.50
20157;PMS5003;10239;56.820;24.416;2023-05-07T02:57:48;10.00;10.00;6.00
20157;PMS5003;10239;56.820;24.416;2023-05-07T03:00:16;3.00;3.00;1.00
20157;PMS5003;10239;56.820;24.416;2023-05-07T03:03:08;8.00;8.00;4.50
20157;PMS5003;10239;56.820;24.416;2023-05-07T03:05:36;6.25;6.25;4.50
20157;PMS5003;10239;56.820;24.416;2023-05-07T03:08:04;10.00;10.00;6.00
20157;PMS5003;10239;56.820;24.416;2023-05-07T03:10:32;8.75;8.75;5.25
20157;PMS5003;10239;56.820;24.416;2023-05-07T03:13:00;12.25;12.25;8.00
20157;PMS5003;10239;56.820;24.416;2023-05-07T03:15:28;19.00;15.00;8.00
20157;PMS5003;10239;56.820;24.416;2023-05-07T03:17:56;3.75;3.75;3.00
20157;PMS5003;10239;56.820;24.416;2023-05-07T03:20:24;6.00;6.00;4.00
20157;PMS5003;10239;56.820;24.416;2023-05-07T03:22:52;8.50;6.75;3.00
20157;PMS5003;10239;56.820;24.416;2023-05-07T03:25:20;8.00;8.00;4.00
20157;PMS5003;10239;56.820;24.416;2023-05-07T03:27:47;5.00;5.00;3.25
20157;PMS5003;10239;56.820;24.416;2023-05-07T03:30:18;3.50;3.50;3.00
20157;PMS5003;10239;56.820;24.416;2023-05-07T03:32:45;4.00;4.00;3.00
20157;PMS5003;10239;56.820;24.416;2023-05-07T03:35:14;4.00;4.00;3.40
20157;PMS5003;10239;56.820;24.416;2023-05-07T03:37:41;4.00;4.00;3.00
20157;PMS5003;10239;56.820;24.416;2023-05-07T03:40:10;3.50;3.50;1.00
20157;PMS5003;10239;56.820;24.416;2023-05-07T03:42:46;1.00;1.00;1.00
20157;PMS5003;10239;56.820;24.416;2023-05-07T03:45:16;3.25;3.25;3.00
20157;PMS5003;10239;56.820;24.416;2023-05-07T03:47:50;1.80;1.80;1.00
20157;PMS5003;10239;56.820;24.416;2023-05-07T03:50:19;3.00;3.00;2.60
20157;PMS5003;10239;56.820;24.416;2023-05-07T03:52:47;4.00;4.00;3.00
20157;PMS5003;10239;56.820;24.416;2023-05-07T03:55:18;3.60;3.60;3.00
20157;PMS5003;10239;56.820;24.416;2023-05-07T03:57:50;3.00;3.00;1.00
20157;PMS5003;10239;56.820;24.416;2023-05-07T04:00:19;1.00;1.00;0.00
20157;PMS5003;10239;56.820;24.416;2023-05-07T04:02:47;1.00;1.00;0.20
20157;PMS5003;10239;56.820;24.416;2023-05-07T04:05:22;3.00;3.00;1.00
20157;PMS5003;10239;56.820;24.416;2023-05-07T04:07:54;3.20;3.20;3.00
20157;PMS5003;10239;56.820;24.416;2023-05-07T04:10:28;3.40;3.40;1.40
20157;PMS5003;10239;56.820;24.416;2023-05-07T04:12:59;1.00;1.00;1.00
20157;PMS5003;10239;56.820;24.416;2023-05-07T04:15:27;0.00;0.00;0.00
20157;PMS5003;10239;56.820;24.416;2023-05-07T04:17:55;0.40;0.40;0.00
20157;PMS5003;10239;56.820;24.416;2023-05-07T04:20:24;1.00;1.00;1.00
20157;PMS5003;10239;56.820;24.416;2023-05-07T04:22:58;0.60;0.60;0.00
20157;PMS5003;10239;56.820;24.416;2023-05-07T04:25:27;1.00;1.00;1.00
20157;PMS5003;10239;56.820;24.416;2023-05-07T04:28:01;0.00;0.00;0.00
20157;PMS5003;10239;56.820;24.416;2023-05-07T04:30:29;1.00;1.00;1.00
20157;PMS5003;10239;56.820;24.416;2023-05-07T04:32:57;1.60;1.60;1.20
20157;PMS5003;10239;56.820;24.416;2023-05-07T04:35:27;1.40;1.40;1.00
20157;PMS5003;10239;56.820;24.416;2023-05-07T04:37:55;0.80;0.80;0.60
20157;PMS5003;10239;56.820;24.416;2023-05-07T04:40:22;11.60;9.80;7.00
20157;PMS5003;10239;56.820;24.416;2023-05-07T04:42:49;1.00;1.00;1.00
20157;PMS5003;10239;56.820;24.416;2023-05-07T04:45:18;7.00;7.00;4.40
20157;PMS5003;10239;56.820;24.416;2023-05-07T04:47:46;5.40;5.40;4.00
20157;PMS5003;10239;56.820;24.416;2023-05-07T04:50:14;1.60;1.60;1.40
20157;PMS5003;10239;56.820;24.416;2023-05-07T04:52:43;7.00;7.00;4.00
20157;PMS5003;10239;56.820;24.416;2023-05-07T04:55:11;0.80;0.80;0.40
20157;PMS5003;10239;56.820;24.416;2023-05-07T04:57:40;1.00;1.00;1.00
20157;PMS5003;10239;56.820;24.416;2023-05-07T05:00:10;2.00;2.00;1.40
20157;PMS5003;10239;56.820;24.416;2023-05-07T05:02:43;1.00;1.00;1.00
20157;PMS5003;10239;56.820;24.416;2023-05-07T05:05:14;1.20;1.20;1.00
20157;PMS5003;10239;56.820;24.416;2023-05-07T05:07:44;1.40;1.40;1.20
20157;PMS5003;10239;56.820;24.416;2023-05-07T05:10:12;1.60;1.60;1.00
20157;PMS5003;10239;56.820;24.416;2023-05-07T05:12:40;2.00;2.00;1.60
20157;PMS5003;10239;56.820;24.416;2023-05-07T05:15:08;2.00;2.00;2.00
20157;PMS5003;10239;56.820;24.416;2023-05-07T05:17:37;1.80;1.80;1.40
20157;PMS5003;10239;56.820;24.416;2023-05-07T05:20:05;2.00;2.00;1.00
20157;PMS5003;10239;56.820;24.416;2023-05-07T05:22:33;1.00;1.00;1.00
20157;PMS5003;10239;56.820;24.416;2023-05-07T05:25:01;2.00;2.00;1.00
20157;PMS5003;10239;56.820;24.416;2023-05-07T05:27:29;3.00;3.00;3.00
20157;PMS5003;10239;56.820;24.416;2023-05-07T05:29:57;1.50;1.50;1.00
20157;PMS5003;10239;56.820;24.416;2023-05-07T05:32:25;1.50;1.50;1.00
20157;PMS5003;10239;56.820;24.416;2023-05-07T05:34:55;2.50;2.50;2.00
20157;PMS5003;10239;56.820;24.416;2023-05-07T05:37:23;1.50;1.50;1.50
20157;PMS5003;10239;56.820;24.416;2023-05-07T05:39:51;0.00;0.00;0.00
20157;PMS5003;10239;56.820;24.416;2023-05-07T05:42:19;1.50;1.50;1.50
20157;PMS5003;10239;56.820;24.416;2023-05-07T05:44:47;1.25;1.25;1.00
20157;PMS5003;10239;56.820;24.416;2023-05-07T05:47:15;1.50;1.50;1.00
20157;PMS5003;10239;56.820;24.416;2023-05-07T05:49:43;2.50;2.50;2.00
20157;PMS5003;10239;56.820;24.416;2023-05-07T05:52:14;1.25;1.25;1.25
20157;PMS5003;10239;56.820;24.416;2023-05-07T05:54:45;2.00;2.00;1.75
20157;PMS5003;10239;56.820;24.416;2023-05-07T05:57:13;2.00;2.00;1.50
20157;PMS5003;10239;56.820;24.416;2023-05-07T05:59:41;2.00;2.00;1.75
20157;PMS5003;10239;56.820;24.416;2023-05-07T06:02:09;1.00;1.00;1.00
20157;PMS5003;10239;56.820;24.416;2023-05-07T06:04:37;2.40;2.40;2.00
20157;PMS5003;10239;56.820;24.416;2023-05-07T06:07:05;2.00;2.00;2.00
20157;PMS5003;10239;56.820;24.416;2023-05-07T06:09:33;1.40;1.40;1.40
20157;PMS5003;10239;56.820;24.416;2023-05-07T06:12:01;2.00;2.00;1.00
20157;PMS5003;10239;56.820;24.416;2023-05-07T06:14:30;1.00;1.00;1.00
20157;PMS5003;10239;56.820;24.416;2023-05-07T06:16:57;2.00;2.00;2.00
20157;PMS5003;10239;56.820;24.416;2023-05-07T06:19:26;1.00;1.00;0.40
20157;PMS5003;10239;56.820;24.416;2023-05-07T06:21:56;1.20;1.20;1.00
20157;PMS5003;10239;56.820;24.416;2023-05-07T06:24:27;1.00;1.00;0.20
20157;PMS5003;10239;56.820;24.416;2023-05-07T06:26:56;2.00;2.00;2.00
20157;PMS5003;10239;56.820;24.416;2023-05-07T06:29:28;1.40;1.40;1.00
20157;PMS5003;10239;56.820;24.416;2023-05-07T06:32:13;1.20;1.20;1.20
20157;PMS5003;10239;56.820;24.416;2023-05-07T06:34:43;1.80;1.80;1.40
20157;PMS5003;10239;56.820;24.416;2023-05-07T06:37:11;0.60;0.60;0.60
20157;PMS5003;10239;56.820;24.416;2023-05-07T06:40:01;2.40;2.40;2.00
20157;PMS5003;10239;56.820;24.416;2023-05-07T06:42:30;1.80;1.80;1.40
20157;PMS5003;10239;56.820;24.416;2023-05-07T06:45:15;2.20;2.20;2.00
20157;PMS5003;10239;56.820;24.416;2023-05-07T06:47:42;1.00;1.00;1.00
20157;PMS5003;10239;56.820;24.416;2023-05-07T06:50:10;2.20;2.20;1.20
20157;PMS5003;10239;56.820;24.416;2023-05-07T06:52:38;1.00;1.00;1.00
20157;PMS5003;10239;56.820;24.416;2023-05-07T06:55:06;1.00;1.00;0.40
20157;PMS5003;10239;56.820;24.416;2023-05-07T06:57:34;1.00;1.00;1.00
20157;PMS5003;10239;56.820;24.416;2023-05-07T07:00:02;1.00;1.00;0.60
20157;PMS5003;10239;56.820;24.416;2023-05-07T07:02:32;1.00;1.00;1.00
20157;PMS5003;10239;56.820;24.416;2023-05-07T07:05:00;1.00;1.00;1.00
20157;PMS5003;10239;56.820;24.416;2023-05-07T07:07:28;1.00;1.00;0.40
20157;PMS5003;10239;56.820;24.416;2023-05-07T07:09:57;1.00;1.00;1.00
20157;PMS5003;10239;56.820;24.416;2023-05-07T07:12:25;1.00;1.00;1.00
20157;PMS5003;10239;56.820;24.416;2023-05-07T07:14:53;0.40;0.40;0.40
20157;PMS5003;10239;56.820;24.416;2023-05-07T07:17:21;0.60;0.60;0.40
20157;PMS5003;10239;56.820;24.416;2023-05-07T07:19:49;0.20;0.20;0.00
20157;PMS5003;10239;56.820;24.416;2023-05-07T07:22:17;0.00;0.00;0.00
20157;PMS5003;10239;56.820;24.416;2023-05-07T07:24:45;0.80;0.80;0.20
20157;PMS5003;10239;56.820;24.416;2023-05-07T07:27:15;1.00;1.00;1.00
20157;PMS5003;10239;56.820;24.416;2023-05-07T07:29:43;1.00;1.00;1.00
20157;PMS5003;10239;56.820;24.416;2023-05-07T07:32:11;0.60;0.60;0.40
20157;PMS5003;10239;56.820;24.416;2023-05-07T07:34:39;1.00;1.00;0.60
20157;PMS5003;10239;56.820;24.416;2023-05-07T07:37:07;0.60;0.60;0.60
20157;PMS5003;10239;56.820;24.416;2023-05-07T07:39:36;0.80;0.80;0.00
20157;PMS5003;10239;56.820;24.416;2023-05-07T07:42:08;1.00;1.00;0.40
20157;PMS5003;10239;56.820;24.416;2023-05-07T07:44:37;0.80;0.80;0.00
20157;PMS5003;10239;56.820;24.416;2023-05-07T07:47:10;0.00;0.00;0.00
20157;PMS5003;10239;56.820;24.416;2023-05-07T07:49:39;0.40;0.40;0.40
20157;PMS5003;10239;56.820;24.416;2023-05-07T07:52:08;1.00;1.00;1.00
20157;PMS5003;10239;56.820;24.416;2023-05-07T07:54:37;1.00;1.00;0.00
20157;PMS5003;10239;56.820;24.416;2023-05-07T07:57:06;0.00;0.00;0.00
20157;PMS5003;10239;56.820;24.416;2023-05-07T07:59:34;1.00;1.00;1.00
20157;PMS5003;10239;56.820;24.416;2023-05-07T08:02:01;0.00;0.00;0.00
20157;PMS5003;10239;56.820;24.416;2023-05-07T08:04:29;0.60;0.60;0.40
20157;PMS5003;10239;56.820;24.416;2023-05-07T08:07:03;0.60;0.60;0.00
20157;PMS5003;10239;56.820;24.416;2023-05-07T08:09:34;1.80;1.80;1.40
20157;PMS5003;10239;56.820;24.416;2023-05-07T08:12:03;0.00;0.00;0.00
20157;PMS5003;10239;56.820;24.416;2023-05-07T08:14:35;1.00;1.00;1.00
20157;PMS5003;10239;56.820;24.416;2023-05-07T08:17:05;1.20;1.20;1.00
20157;PMS5003;10239;56.820;24.416;2023-05-07T08:19:34;1.00;1.00;1.00
20157;PMS5003;10239;56.820;24.416;2023-05-07T08:22:03;0.00;0.00;0.00
20157;PMS5003;10239;56.820;24.416;2023-05-07T08:24:33;0.40;0.40;0.00
20157;PMS5003;10239;56.820;24.416;2023-05-07T08:27:01;0.40;0.40;0.40
20157;PMS5003;10239;56.820;24.416;2023-05-07T08:29:29;0.00;0.00;0.00
20157;PMS5003;10239;56.820;24.416;2023-05-07T08:31:56;0.00;0.00;0.00
20157;PMS5003;10239;56.820;24.416;2023-05-07T08:34:24;1.00;1.00;1.00
20157;PMS5003;10239;56.820;24.416;2023-05-07T08:36:53;0.40;0.40;0.20
20157;PMS5003;10239;56.820;24.416;2023-05-07T08:39:24;0.00;0.00;0.00
20157;PMS5003;10239;56.820;24.416;2023-05-07T08:41:54;0.00;0.00;0.00
20157;PMS5003;10239;56.820;24.416;2023-05-07T08:44:26;1.00;1.00;0.80
20157;PMS5003;10239;56.820;24.416;2023-05-07T08:46:56;0.60;0.60;0.20
20157;PMS5003;10239;56.820;24.416;2023-05-07T08:49:27;0.00;0.00;0.00
20157;PMS5003;10239;56.820;24.416;2023-05-07T08:51:56;0.00;0.00;0.00
20157;PMS5003;10239;56.820;24.416;2023-05-07T08:54:24;0.00;0.00;0.00
20157;PMS5003;10239;56.820;24.416;2023-05-07T08:56:53;0.20;0.20;0.00
20157;PMS5003;10239;56.820;24.416;2023-05-07T08:59:21;0.80;0.80;0.80
20157;PMS5003;10239;56.820;24.416;2023-05-07T09:01:48;0.40;0.40;0.00
20157;PMS5003;10239;56.820;24.416;2023-05-07T09:04:17;0.40;0.40;0.00
20157;PMS5003;10239;56.820;24.416;2023-05-07T09:06:45;0.00;0.00;0.00
20157;PMS5003;10239;56.820;24.416;2023-05-07T09:09:15;0.60;0.60;0.00
20157;PMS5003;10239;56.820;24.416;2023-05-07T09:11:54;1.00;1.00;1.00
20157;PMS5003;10239;56.820;24.416;2023-05-07T09:14:28;0.00;0.00;0.00
20157;PMS5003;10239;56.820;24.416;2023-05-07T09:16:57;1.00;1.00;0.80
20157;PMS5003;10239;56.820;24.416;2023-05-07T09:19:26;0.20;0.20;0.20
20157;PMS5003;10239;56.820;24.416;2023-05-07T09:22:04;0.20;0.20;0.00
20157;PMS5003;10239;56.820;24.416;2023-05-07T09:24:48;1.00;1.00;1.00
20157;PMS5003;10239;56.820;24.416;2023-05-07T09:27:20;0.60;0.60;0.00
20157;PMS5003;10239;56.820;24.416;2023-05-07T09:29:48;0.80;0.80;0.80
20157;PMS5003;10239;56.820;24.416;2023-05-07T09:32:15;0.80;0.80;0.80
20157;PMS5003;10239;56.820;24.416;2023-05-07T09:34:43;0.40;0.40;0.40
20157;PMS5003;10239;56.820;24.416;2023-05-07T09:37:12;1.80;1.80;1.00
20157;PMS5003;10239;56.820;24.416;2023-05-07T09:39:42;0.40;0.40;0.40
20157;PMS5003;10239;56.820;24.416;2023-05-07T09:42:12;0.00;0.00;0.00
20157;PMS5003;10239;56.820;24.416;2023-05-07T09:44:44;1.00;1.00;1.00
20157;PMS5003;10239;56.820;24.416;2023-05-07T09:47:18;1.00;1.00;0.20
20157;PMS5003;10239;56.820;24.416;2023-05-07T09:49:49;1.00;1.00;1.00
20157;PMS5003;10239;56.820;24.416;2023-05-07T09:52:20;0.00;0.00;0.00
20157;PMS5003;10239;56.820;24.416;2023-05-07T09:54:51;0.00;0.00;0.00
20157;PMS5003;10239;56.820;24.416;2023-05-07T09:57:25;0.00;0.00;0.00
20157;PMS5003;10239;56.820;24.416;2023-05-07T09:59:58;0.20;0.20;0.00
20157;PMS5003;10239;56.820;24.416;2023-05-07T10:02:35;0.00;0.00;0.00
20157;PMS5003;10239;56.820;24.416;2023-05-07T10:05:12;0.20;0.20;0.20
20157;PMS5003;10239;56.820;24.416;2023-05-07T10:07:41;0.20;0.20;0.20
20157;PMS5003;10239;56.820;24.416;2023-05-07T10:10:10;0.00;0.00;0.00
20157;PMS5003;10239;56.820;24.416;2023-05-07T10:12:41;1.00;1.00;0.00
20157;PMS5003;10239;56.820;24.416;2023-05-07T10:15:15;0.40;0.40;0.00
20157;PMS5003;10239;56.820;24.416;2023-05-07T10:17:48;0.00;0.00;0.00
20157;PMS5003;10239;56.820;24.416;2023-05-07T10:20:16;1.80;1.80;1.00
20157;PMS5003;10239;56.820;24.416;2023-05-07T10:22:45;1.00;1.00;0.80
20157;PMS5003;10239;56.820;24.416;2023-05-07T10:25:23;0.00;0.00;0.00
20157;PMS5003;10239;56.820;24.416;2023-05-07T10:28:07;0.00;0.00;0.00
20157;PMS5003;10239;56.820;24.416;2023-05-07T10:33:23;0.75;0.75;0.00
20157;PMS5003;10239;56.820;24.416;2023-05-07T10:35:58;0.50;0.50;0.25
20157;PMS5003;10239;56.820;24.416;2023-05-07T10:38:29;0.75;0.75;0.50
20157;PMS5003;10239;56.820;24.416;2023-05-07T10:40:59;0.00;0.00;0.00
20157;PMS5003;10239;56.820;24.416;2023-05-07T10:43:42;0.00;0.00;0.00
20157;PMS5003;10239;56.820;24.416;2023-05-07T10:46:32;0.00;0.00;0.00
20157;PMS5003;10239;56.820;24.416;2023-05-07T10:49:22;0.25;0.25;0.00
20157;PMS5003;10239;56.820;24.416;2023-05-07T10:52:18;0.50;0.50;0.00
20157;PMS5003;10239;56.820;24.416;2023-05-07T11:01:15;1.00;1.00;1.00
20157;PMS5003;10239;56.820;24.416;2023-05-07T11:04:27;0.50;0.50;0.25
20157;PMS5003;10239;56.820;24.416;2023-05-07T11:07:23;0.00;0.00;0.00
20157;PMS5003;10239;56.820;24.416;2023-05-07T11:10:01;1.00;1.00;0.50
20157;PMS5003;10239;56.820;24.416;2023-05-07T11:12:54;0.75;0.75;0.00
20157;PMS5003;10239;56.820;24.416;2023-05-07T11:15:37;1.00;1.00;1.00
20157;PMS5003;10239;56.820;24.416;2023-05-07T11:18:21;1.00;1.00;1.00
20157;PMS5003;10239;56.820;24.416;2023-05-07T11:20:57;1.00;1.00;1.00
20157;PMS5003;10239;56.820;24.416;2023-05-07T11:26:26;0.25;0.25;0.25
20157;PMS5003;10239;56.820;24.416;2023-05-07T11:28:55;0.00;0.00;0.00
20157;PMS5003;10239;56.820;24.416;2023-05-07T11:31:25;0.75;0.75;0.00
20157;PMS5003;10239;56.820;24.416;2023-05-07T11:33:58;0.50;0.50;0.50
20157;PMS5003;10239;56.820;24.416;2023-05-07T11:36:30;1.00;0.25;0.00
20157;PMS5003;10239;56.820;24.416;2023-05-07T11:39:01;0.50;0.50;0.50
20157;PMS5003;10239;56.820;24.416;2023-05-07T11:41:34;0.75;0.75;0.75
20157;PMS5003;10239;56.820;24.416;2023-05-07T11:44:03;1.00;1.00;1.00
20157;PMS5003;10239;56.820;24.416;2023-05-07T11:46:31;0.50;0.50;0.50
20157;PMS5003;10239;56.820;24.416;2023-05-07T11:49:00;2.00;0.25;0.25
20157;PMS5003;10239;56.820;24.416;2023-05-07T11:51:28;0.00;0.00;0.00
20157;PMS5003;10239;56.820;24.416;2023-05-07T11:53:56;0.00;0.00;0.00
20157;PMS5003;10239;56.820;24.416;2023-05-07T11:56:24;1.00;1.00;0.50
20157;PMS5003;10239;56.820;24.416;2023-05-07T11:58:51;0.75;0.75;0.75
20157;PMS5003;10239;56.820;24.416;2023-05-07T12:01:19;0.25;0.25;0.00
20157;PMS5003;10239;56.820;24.416;2023-05-07T12:03:46;1.00;1.00;1.00
20157;PMS5003;10239;56.820;24.416;2023-05-07T12:06:16;1.00;1.00;1.00
20157;PMS5003;10239;56.820;24.416;2023-05-07T12:08:44;0.25;0.25;0.25
20157;PMS5003;10239;56.820;24.416;2023-05-07T12:11:15;2.00;1.00;1.00
20157;PMS5003;10239;56.820;24.416;2023-05-07T12:13:48;2.00;2.00;1.00
20157;PMS5003;10239;56.820;24.416;2023-05-07T12:16:15;1.00;1.00;0.75
20157;PMS5003;10239;56.820;24.416;2023-05-07T12:18:44;1.00;1.00;1.00
20157;PMS5003;10239;56.820;24.416;2023-05-07T12:21:13;0.75;0.75;0.75
20157;PMS5003;10239;56.820;24.416;2023-05-07T12:23:41;0.25;0.25;0.00
20157;PMS5003;10239;56.820;24.416;2023-05-07T12:26:09;0.75;0.75;0.25
20157;PMS5003;10239;56.820;24.416;2023-05-07T12:28:37;1.75;1.75;1.00
20157;PMS5003;10239;56.820;24.416;2023-05-07T12:31:05;1.00;1.00;1.00
20157;PMS5003;10239;56.820;24.416;2023-05-07T12:33:34;0.50;0.50;0.50
20157;PMS5003;10239;56.820;24.416;2023-05-07T12:36:03;0.00;0.00;0.00
20157;PMS5003;10239;56.820;24.416;2023-05-07T12:38:34;1.00;1.00;0.75
20157;PMS5003;10239;56.820;24.416;2023-05-07T12:41:04;1.00;1.00;1.00
20157;PMS5003;10239;56.820;24.416;2023-05-07T12:43:33;0.00;0.00;0.00
20157;PMS5003;10239;56.820;24.416;2023-05-07T12:46:03;3.00;3.00;1.25
20157;PMS5003;10239;56.820;24.416;2023-05-07T12:48:33;1.00;1.00;0.25
20157;PMS5003;10239;56.820;24.416;2023-05-07T12:51:02;1.00;1.00;0.00
20157;PMS5003;10239;56.820;24.416;2023-05-07T12:53:30;0.00;0.00;0.00
20157;PMS5003;10239;56.820;24.416;2023-05-07T12:55:58;0.00;0.00;0.00
20157;PMS5003;10239;56.820;24.416;2023-05-07T12:58:27;0.50;0.50;0.00
20157;PMS5003;10239;56.820;24.416;2023-05-07T13:00:57;2.00;2.00;1.00
20157;PMS5003;10239;56.820;24.416;2023-05-07T13:03:30;1.00;1.00;0.50
20157;PMS5003;10239;56.820;24.416;2023-05-07T13:06:01;0.00;0.00;0.00
20157;PMS5003;10239;56.820;24.416;2023-05-07T13:08:33;1.00;1.00;1.00
20157;PMS5003;10239;56.820;24.416;2023-05-07T13:11:04;0.00;0.00;0.00
20157;PMS5003;10239;56.820;24.416;2023-05-07T13:13:32;1.75;1.75;1.25
20157;PMS5003;10239;56.820;24.416;2023-05-07T13:16:01;3.00;3.00;2.25
20157;PMS5003;10239;56.820;24.416;2023-05-07T13:18:30;1.00;1.00;0.75
20157;PMS5003;10239;56.820;24.416;2023-05-07T13:20:58;1.00;1.00;1.00
20157;PMS5003;10239;56.820;24.416;2023-05-07T13:23:27;1.00;1.00;0.75
20157;PMS5003;10239;56.820;24.416;2023-05-07T13:25:55;1.25;1.25;1.00
20157;PMS5003;10239;56.820;24.416;2023-05-07T13:28:23;0.50;0.50;0.50
20157;PMS5003;10239;56.820;24.416;2023-05-07T13:30:52;1.00;1.00;0.50
20157;PMS5003;10239;56.820;24.416;2023-05-07T13:33:21;0.25;0.25;0.25
20157;PMS5003;10239;56.820;24.416;2023-05-07T13:35:48;1.00;1.00;1.00
20157;PMS5003;10239;56.820;24.416;2023-05-07T13:38:16;0.00;0.00;0.00
20157;PMS5003;10239;56.820;24.416;2023-05-07T13:40:44;1.00;1.00;1.00
20157;PMS5003;10239;56.820;24.416;2023-05-07T13:43:12;1.00;1.00;1.00
20157;PMS5003;10239;56.820;24.416;2023-05-07T13:45:40;1.00;1.00;1.00
20157;PMS5003;10239;56.820;24.416;2023-05-07T13:48:08;0.75;0.75;0.75
20157;PMS5003;10239;56.820;24.416;2023-05-07T13:50:35;0.50;0.50;0.50
20157;PMS5003;10239;56.820;24.416;2023-05-07T13:53:03;1.25;1.25;1.00
20157;PMS5003;10239;56.820;24.416;2023-05-07T13:55:31;1.25;1.25;1.00
20157;PMS5003;10239;56.820;24.416;2023-05-07T13:57:59;1.25;1.25;0.25
20157;PMS5003;10239;56.820;24.416;2023-05-07T14:00:32;2.00;2.00;2.00
20157;PMS5003;10239;56.820;24.416;2023-05-07T14:03:00;0.75;0.75;0.00
20157;PMS5003;10239;56.820;24.416;2023-05-07T14:05:28;0.75;0.75;0.75
20157;PMS5003;10239;56.820;24.416;2023-05-07T14:07:59;1.00;1.00;1.00
20157;PMS5003;10239;56.820;24.416;2023-05-07T14:10:27;0.00;0.00;0.00
20157;PMS5003;10239;56.820;24.416;2023-05-07T14:12:54;1.00;1.00;1.00
20157;PMS5003;10239;56.820;24.416;2023-05-07T14:15:22;1.00;1.00;1.00
20157;PMS5003;10239;56.820;24.416;2023-05-07T14:17:50;1.00;1.00;1.00
20157;PMS5003;10239;56.820;24.416;2023-05-07T14:20:18;1.00;1.00;1.00
20157;PMS5003;10239;56.820;24.416;2023-05-07T14:22:45;0.00;0.00;0.00
20157;PMS5003;10239;56.820;24.416;2023-05-07T14:25:13;0.25;0.25;0.00
20157;PMS5003;10239;56.820;24.416;2023-05-07T14:27:44;0.75;0.75;0.00
20157;PMS5003;10239;56.820;24.416;2023-05-07T14:30:12;0.50;0.50;0.50
20157;PMS5003;10239;56.820;24.416;2023-05-07T14:32:40;1.00;1.00;0.75
20157;PMS5003;10239;56.820;24.416;2023-05-07T14:35:07;0.50;0.50;0.50
20157;PMS5003;10239;56.820;24.416;2023-05-07T14:37:36;0.25;0.25;0.25